sensor_id;sensor_type;location;lat;lon;timestamp;pressure;altitude;pressure_sealevel;temperature;humidity
11329;BME280;5719;42.714;23.732;2022-07-31T00:01:00;94251.38;;;20.21;100.00
11329;BME280;5719;42.714;23.732;2022-07-31T00:03:27;94254.88;;;20.14;100.00
11329;BME280;5719;42.714;23.732;2022-07-31T00:05:54;94273.38;;;20.20;100.00
11329;BME280;5719;42.714;23.732;2022-07-31T00:08:21;94286.84;;;20.17;100.00
11329;BME280;5719;42.714;23.732;2022-07-31T00:10:48;94286.53;;;20.12;100.00
11329;BME280;5719;42.714;23.732;2022-07-31T00:13:14;94285.91;;;20.10;100.00
11329;BME280;5719;42.714;23.732;2022-07-31T00:15:43;94270.31;;;20.08;100.00
11329;BME280;5719;42.714;23.732;2022-07-31T00:18:10;94271.63;;;20.13;100.00
11329;BME280;5719;42.714;23.732;2022-07-31T00:20:36;94273.06;;;20.15;100.00
11329;BME280;5719;42.714;23.732;2022-07-31T00:23:03;94272.91;;;20.17;100.00
11329;BME280;5719;42.714;23.732;2022-07-31T00:25:30;94265.53;;;20.12;100.00
11329;BME280;5719;42.714;23.732;2022-07-31T00:27:57;94268.88;;;20.06;100.00
11329;BME280;5719;42.714;23.732;2022-07-31T00:30:24;94273.81;;;20.01;100.00
11329;BME280;5719;42.714;23.732;2022-07-31T00:32:52;94287.91;;;20.00;100.00
11329;BME280;5719;42.714;23.732;2022-07-31T00:35:19;94285.81;;;19.95;100.00
11329;BME280;5719;42.714;23.732;2022-07-31T00:37:46;94295.16;;;19.98;100.00
11329;BME280;5719;42.714;23.732;2022-07-31T00:40:15;94288.44;;;19.95;100.00
11329;BME280;5719;42.714;23.732;2022-07-31T00:42:42;94303.53;;;19.93;100.00
11329;BME280;5719;42.714;23.732;2022-07-31T00:45:10;94311.25;;;19.87;100.00
11329;BME280;5719;42.714;23.732;2022-07-31T00:47:37;94308.03;;;19.77;100.00
11329;BME280;5719;42.714;23.732;2022-07-31T00:50:06;94307.22;;;19.76;100.00
11329;BME280;5719;42.714;23.732;2022-07-31T00:52:33;94298.53;;;19.68;100.00
11329;BME280;5719;42.714;23.732;2022-07-31T00:55:00;94291.84;;;19.65;100.00
11329;BME280;5719;42.714;23.732;2022-07-31T00:57:27;94293.38;;;19.51;100.00
11329;BME280;5719;42.714;23.732;2022-07-31T00:59:54;94297.78;;;19.51;100.00
11329;BME280;5719;42.714;23.732;2022-07-31T01:02:21;94316.31;;;19.33;100.00
11329;BME280;5719;42.714;23.732;2022-07-31T01:04:48;94315.50;;;19.25;100.00
11329;BME280;5719;42.714;23.732;2022-07-31T01:07:16;94310.44;;;19.15;100.00
11329;BME280;5719;42.714;23.732;2022-07-31T01:09:45;94308.81;;;19.22;100.00
11329;BME280;5719;42.714;23.732;2022-07-31T01:12:17;94308.97;;;19.21;100.00
11329;BME280;5719;42.714;23.732;2022-07-31T01:14:49;94313.38;;;19.28;100.00
11329;BME280;5719;42.714;23.732;2022-07-31T01:17:18;94318.31;;;19.23;100.00
11329;BME280;5719;42.714;23.732;2022-07-31T01:19:48;94315.84;;;19.22;100.00
11329;BME280;5719;42.714;23.732;2022-07-31T01:22:41;94313.22;;;19.22;100.00
11329;BME280;5719;42.714;23.732;2022-07-31T01:25:16;94306.81;;;19.32;100.00
11329;BME280;5719;42.714;23.732;2022-07-31T01:27:58;94301.91;;;19.29;100.00
11329;BME280;5719;42.714;23.732;2022-07-31T01:30:32;94312.88;;;19.33;100.00
11329;BME280;5719;42.714;23.732;2022-07-31T01:33:04;94302.25;;;19.34;100.00
11329;BME280;5719;42.714;23.732;2022-07-31T01:35:38;94295.00;;;19.36;100.00
11329;BME280;5719;42.714;23.732;2022-07-31T01:38:10;94302.38;;;19.41;100.00
11329;BME280;5719;42.714;23.732;2022-07-31T01:40:41;94309.09;;;19.35;100.00
11329;BME280;5719;42.714;23.732;2022-07-31T01:43:12;94297.66;;;19.20;100.00
11329;BME280;5719;42.714;23.732;2022-07-31T01:45:44;94307.97;;;19.14;100.00
11329;BME280;5719;42.714;23.732;2022-07-31T01:48:14;94295.38;;;19.09;100.00
11329;BME280;5719;42.714;23.732;2022-07-31T01:50:43;94284.25;;;19.15;100.00
11329;BME280;5719;42.714;23.732;2022-07-31T01:53:12;94297.66;;;19.20;100.00
11329;BME280;5719;42.714;23.732;2022-07-31T01:55:41;94294.53;;;19.25;100.00
11329;BME280;5719;42.714;23.732;2022-07-31T01:58:09;94293.22;;;19.29;100.00
11329;BME280;5719;42.714;23.732;2022-07-31T02:00:37;94293.06;;;19.22;100.00
11329;BME280;5719;42.714;23.732;2022-07-31T02:03:07;94295.38;;;19.09;100.00
11329;BME280;5719;42.714;23.732;2022-07-31T02:05:35;94296.53;;;19.06;100.00
11329;BME280;5719;42.714;23.732;2022-07-31T02:08:05;94298.66;;;19.03;100.00
11329;BME280;5719;42.714;23.732;2022-07-31T02:10:32;94298.19;;;18.99;100.00
11329;BME280;5719;42.714;23.732;2022-07-31T02:12:59;94289.84;;;18.96;100.00
11329;BME280;5719;42.714;23.732;2022-07-31T02:15:28;94289.69;;;18.97;100.00
11329;BME280;5719;42.714;23.732;2022-07-31T02:17:57;94302.09;;;18.95;100.00
11329;BME280;5719;42.714;23.732;2022-07-31T02:20:26;94288.19;;;18.95;100.00
11329;BME280;5719;42.714;23.732;2022-07-31T02:22:56;94292.94;;;18.99;100.00
11329;BME280;5719;42.714;23.732;2022-07-31T02:25:24;94289.66;;;19.05;100.00
11329;BME280;5719;42.714;23.732;2022-07-31T02:27:52;94284.75;;;19.10;100.00
11329;BME280;5719;42.714;23.732;2022-07-31T02:30:21;94277.34;;;19.14;100.00
11329;BME280;5719;42.714;23.732;2022-07-31T02:32:50;94285.56;;;19.11;100.00
11329;BME280;5719;42.714;23.732;2022-07-31T02:35:17;94285.22;;;19.14;100.00
11329;BME280;5719;42.714;23.732;2022-07-31T02:37:49;94291.44;;;19.13;100.00
11329;BME280;5719;42.714;23.732;2022-07-31T02:40:16;94286.72;;;19.08;100.00
11329;BME280;5719;42.714;23.732;2022-07-31T02:42:45;94279.50;;;19.10;100.00
11329;BME280;5719;42.714;23.732;2022-07-31T02:45:13;94278.66;;;19.18;100.00
11329;BME280;5719;42.714;23.732;2022-07-31T02:47:41;94272.47;;;19.11;100.00
11329;BME280;5719;42.714;23.732;2022-07-31T02:50:09;94290.13;;;19.09;100.00
11329;BME280;5719;42.714;23.732;2022-07-31T02:52:36;94287.22;;;18.96;100.00
11329;BME280;5719;42.714;23.732;2022-07-31T02:55:07;94291.97;;;18.92;100.00
11329;BME280;5719;42.714;23.732;2022-07-31T02:57:34;94293.75;;;19.00;100.00
11329;BME280;5719;42.714;23.732;2022-07-31T03:00:13;94288.38;;;18.93;100.00
11329;BME280;5719;42.714;23.732;2022-07-31T03:02:40;94300.00;;;18.75;100.00
11329;BME280;5719;42.714;23.732;2022-07-31T03:05:07;94296.41;;;18.68;100.00
11329;BME280;5719;42.714;23.732;2022-07-31T03:07:34;94300.00;;;18.75;100.00
11329;BME280;5719;42.714;23.732;2022-07-31T03:10:01;94286.41;;;18.71;100.00
11329;BME280;5719;42.714;23.732;2022-07-31T03:12:29;94289.34;;;18.76;100.00
11329;BME280;5719;42.714;23.732;2022-07-31T03:14:56;94294.09;;;18.81;100.00
11329;BME280;5719;42.714;23.732;2022-07-31T03:17:24;94289.00;;;18.87;100.00
11329;BME280;5719;42.714;23.732;2022-07-31T03:19:52;94303.59;;;18.90;100.00
11329;BME280;5719;42.714;23.732;2022-07-31T03:22:19;94298.69;;;18.87;100.00
11329;BME280;5719;42.714;23.732;2022-07-31T03:24:46;94303.75;;;18.88;100.00
11329;BME280;5719;42.714;23.732;2022-07-31T03:27:13;94302.78;;;18.89;100.00
11329;BME280;5719;42.714;23.732;2022-07-31T03:29:41;94295.88;;;18.96;100.00
11329;BME280;5719;42.714;23.732;2022-07-31T03:32:08;94294.59;;;19.00;100.00
11329;BME280;5719;42.714;23.732;2022-07-31T03:34:35;94305.38;;;19.05;100.00
11329;BME280;5719;42.714;23.732;2022-07-31T03:37:02;94299.97;;;19.07;100.00
11329;BME280;5719;42.714;23.732;2022-07-31T03:39:29;94299.31;;;19.13;100.00
11329;BME280;5719;42.714;23.732;2022-07-31T03:41:56;94297.84;;;19.19;100.00
11329;BME280;5719;42.714;23.732;2022-07-31T03:44:23;94311.41;;;19.22;100.00
11329;BME280;5719;42.714;23.732;2022-07-31T03:46:53;94313.06;;;19.15;100.00
11329;BME280;5719;42.714;23.732;2022-07-31T03:49:20;94315.69;;;19.15;100.00
11329;BME280;5719;42.714;23.732;2022-07-31T03:51:48;94312.44;;;19.05;100.00
11329;BME280;5719;42.714;23.732;2022-07-31T03:54:15;94310.44;;;19.07;100.00
11329;BME280;5719;42.714;23.732;2022-07-31T03:56:45;94314.88;;;19.06;100.00
11329;BME280;5719;42.714;23.732;2022-07-31T03:59:14;94309.97;;;19.03;100.00
11329;BME280;5719;42.714;23.732;2022-07-31T04:01:41;94318.16;;;18.92;100.00
11329;BME280;5719;42.714;23.732;2022-07-31T04:04:10;94327.47;;;18.95;100.00
11329;BME280;5719;42.714;23.732;2022-07-31T04:06:38;94327.81;;;18.84;100.00
11329;BME280;5719;42.714;23.732;2022-07-31T04:09:05;94325.19;;;18.84;100.00
11329;BME280;5719;42.714;23.732;2022-07-31T04:11:32;94319.94;;;18.84;100.00
11329;BME280;5719;42.714;23.732;2022-07-31T04:13:59;94330.28;;;18.85;100.00
11329;BME280;5719;42.714;23.732;2022-07-31T04:16:26;94330.63;;;18.90;100.00
11329;BME280;5719;42.714;23.732;2022-07-31T04:18:53;94324.38;;;18.99;100.00
11329;BME280;5719;42.714;23.732;2022-07-31T04:21:21;94325.19;;;19.00;100.00
11329;BME280;5719;42.714;23.732;2022-07-31T04:23:48;94316.03;;;19.04;100.00
11329;BME280;5719;42.714;23.732;2022-07-31T04:26:15;94315.38;;;19.10;100.00
11329;BME280;5719;42.714;23.732;2022-07-31T04:28:42;94310.75;;;19.20;100.00
11329;BME280;5719;42.714;23.732;2022-07-31T04:31:09;94315.00;;;19.29;100.00
11329;BME280;5719;42.714;23.732;2022-07-31T04:33:36;94318.94;;;19.33;100.00
11329;BME280;5719;42.714;23.732;2022-07-31T04:36:03;94313.34;;;19.36;100.00
11329;BME280;5719;42.714;23.732;2022-07-31T04:38:31;94323.03;;;19.44;100.00
11329;BME280;5719;42.714;23.732;2022-07-31T04:40:58;94314.00;;;19.38;100.00
11329;BME280;5719;42.714;23.732;2022-07-31T04:43:25;94328.09;;;19.45;100.00
11329;BME280;5719;42.714;23.732;2022-07-31T04:45:52;94327.13;;;19.46;100.00
11329;BME280;5719;42.714;23.732;2022-07-31T04:48:19;94333.00;;;19.40;100.00
11329;BME280;5719;42.714;23.732;2022-07-31T04:50:46;94334.97;;;19.38;100.00
11329;BME280;5719;42.714;23.732;2022-07-31T04:53:13;94328.13;;;19.37;100.00
11329;BME280;5719;42.714;23.732;2022-07-31T04:55:41;94336.78;;;19.46;100.00
11329;BME280;5719;42.714;23.732;2022-07-31T04:58:28;94335.31;;;19.51;100.00
11329;BME280;5719;42.714;23.732;2022-07-31T05:00:55;94337.28;;;19.49;100.00
11329;BME280;5719;42.714;23.732;2022-07-31T05:03:22;94335.31;;;19.51;100.00
11329;BME280;5719;42.714;23.732;2022-07-31T05:05:49;94331.03;;;19.58;100.00
11329;BME280;5719;42.714;23.732;2022-07-31T05:08:16;94338.25;;;19.56;100.00
11329;BME280;5719;42.714;23.732;2022-07-31T05:10:44;94329.72;;;19.38;100.00
11329;BME280;5719;42.714;23.732;2022-07-31T05:13:28;94332.72;;;19.19;100.00
11329;BME280;5719;42.714;23.732;2022-07-31T05:15:55;94334.03;;;19.15;100.00
11329;BME280;5719;42.714;23.732;2022-07-31T05:18:22;94333.69;;;19.02;100.00
11329;BME280;5719;42.714;23.732;2022-07-31T05:20:49;94335.03;;;18.90;100.00
11329;BME280;5719;42.714;23.732;2022-07-31T05:23:16;94335.66;;;18.84;100.00
11329;BME280;5719;42.714;23.732;2022-07-31T05:25:44;94338.28;;;18.92;100.00
11329;BME280;5719;42.714;23.732;2022-07-31T05:28:11;94334.38;;;18.96;100.00
11329;BME280;5719;42.714;23.732;2022-07-31T05:30:38;94320.13;;;19.06;100.00
11329;BME280;5719;42.714;23.732;2022-07-31T05:33:05;94330.44;;;19.00;100.00
11329;BME280;5719;42.714;23.732;2022-07-31T05:35:32;94336.66;;;18.75;100.00
11329;BME280;5719;42.714;23.732;2022-07-31T05:37:58;94341.09;;;18.82;100.00
11329;BME280;5719;42.714;23.732;2022-07-31T05:40:26;94347.63;;;18.94;100.00
11329;BME280;5719;42.714;23.732;2022-07-31T05:42:54;94338.47;;;18.82;100.00
11329;BME280;5719;42.714;23.732;2022-07-31T05:45:21;94349.41;;;18.70;100.00
11329;BME280;5719;42.714;23.732;2022-07-31T05:47:48;94340.09;;;18.67;100.00
11329;BME280;5719;42.714;23.732;2022-07-31T05:50:15;94350.41;;;18.60;100.00
11329;BME280;5719;42.714;23.732;2022-07-31T05:52:42;94342.84;;;18.66;100.00
11329;BME280;5719;42.714;23.732;2022-07-31T05:55:09;94340.25;;;18.82;100.00
11329;BME280;5719;42.714;23.732;2022-07-31T05:57:36;94338.31;;;18.76;100.00
11329;BME280;5719;42.714;23.732;2022-07-31T06:00:05;94335.69;;;18.68;100.00
11329;BME280;5719;42.714;23.732;2022-07-31T06:02:33;94339.44;;;18.73;100.00
11329;BME280;5719;42.714;23.732;2022-07-31T06:05:00;94342.06;;;18.73;100.00
11329;BME280;5719;42.714;23.732;2022-07-31T06:07:27;94346.66;;;18.71;100.00
11329;BME280;5719;42.714;23.732;2022-07-31T06:09:54;94338.28;;;18.84;100.00
11329;BME280;5719;42.714;23.732;2022-07-31T06:12:21;94335.53;;;18.85;100.00
11329;BME280;5719;42.714;23.732;2022-07-31T06:14:48;94333.88;;;19.00;100.00
11329;BME280;5719;42.714;23.732;2022-07-31T06:17:17;94335.00;;;19.22;100.00
11329;BME280;5719;42.714;23.732;2022-07-31T06:19:43;94337.59;;;19.38;100.00
11329;BME280;5719;42.714;23.732;2022-07-31T06:22:10;94339.59;;;19.44;100.00
11329;BME280;5719;42.714;23.732;2022-07-31T06:24:37;94337.63;;;19.46;100.00
11329;BME280;5719;42.714;23.732;2022-07-31T06:27:04;94337.81;;;19.45;100.00
11329;BME280;5719;42.714;23.732;2022-07-31T06:29:31;94334.50;;;19.51;100.00
11329;BME280;5719;42.714;23.732;2022-07-31T06:31:58;94332.81;;;19.74;100.00
11329;BME280;5719;42.714;23.732;2022-07-31T06:34:27;94334.53;;;19.90;100.00
11329;BME280;5719;42.714;23.732;2022-07-31T06:36:54;94337.72;;;20.16;100.00
11329;BME280;5719;42.714;23.732;2022-07-31T06:39:21;94323.09;;;20.52;100.00
11329;BME280;5719;42.714;23.732;2022-07-31T06:41:48;94333.47;;;20.91;100.00
11329;BME280;5719;42.714;23.732;2022-07-31T06:44:16;94327.94;;;20.86;100.00
11329;BME280;5719;42.714;23.732;2022-07-31T06:46:44;94326.53;;;20.98;100.00
11329;BME280;5719;42.714;23.732;2022-07-31T06:49:11;94329.91;;;21.07;100.00
11329;BME280;5719;42.714;23.732;2022-07-31T06:51:39;94332.78;;;21.20;100.00
11329;BME280;5719;42.714;23.732;2022-07-31T06:54:07;94333.84;;;21.48;100.00
11329;BME280;5719;42.714;23.732;2022-07-31T06:56:36;94335.47;;;21.49;100.00
11329;BME280;5719;42.714;23.732;2022-07-31T06:59:05;94322.03;;;21.44;100.00
11329;BME280;5719;42.714;23.732;2022-07-31T07:01:32;94324.16;;;21.49;100.00
11329;BME280;5719;42.714;23.732;2022-07-31T07:03:59;94323.94;;;21.50;100.00
11329;BME280;5719;42.714;23.732;2022-07-31T07:06:26;94326.31;;;21.45;100.00
11329;BME280;5719;42.714;23.732;2022-07-31T07:08:55;94324.19;;;21.26;100.00
11329;BME280;5719;42.714;23.732;2022-07-31T07:11:22;94327.00;;;21.39;100.00
11329;BME280;5719;42.714;23.732;2022-07-31T07:13:49;94329.91;;;21.30;100.00
11329;BME280;5719;42.714;23.732;2022-07-31T07:16:16;94327.44;;;21.28;100.00
11329;BME280;5719;42.714;23.732;2022-07-31T07:18:43;94329.03;;;21.37;100.00
11329;BME280;5719;42.714;23.732;2022-07-31T07:21:10;94335.97;;;21.16;100.00
11329;BME280;5719;42.714;23.732;2022-07-31T07:23:37;94337.50;;;21.25;100.00
11329;BME280;5719;42.714;23.732;2022-07-31T07:26:06;94333.25;;;21.24;100.00
11329;BME280;5719;42.714;23.732;2022-07-31T07:28:34;94335.28;;;21.51;100.00
11329;BME280;5719;42.714;23.732;2022-07-31T07:31:01;94331.69;;;21.81;100.00
11329;BME280;5719;42.714;23.732;2022-07-31T07:33:28;94334.41;;;22.17;100.00
11329;BME280;5719;42.714;23.732;2022-07-31T07:35:55;94334.19;;;22.33;100.00
11329;BME280;5719;42.714;23.732;2022-07-31T07:38:22;94338.94;;;22.23;100.00
11329;BME280;5719;42.714;23.732;2022-07-31T07:40:50;94336.06;;;22.54;100.00
11329;BME280;5719;42.714;23.732;2022-07-31T07:43:19;94343.63;;;22.42;100.00
11329;BME280;5719;42.714;23.732;2022-07-31T07:45:46;94339.81;;;22.30;100.00
11329;BME280;5719;42.714;23.732;2022-07-31T07:48:13;94348.66;;;22.23;100.00
11329;BME280;5719;42.714;23.732;2022-07-31T07:50:40;94343.78;;;21.90;100.00
11329;BME280;5719;42.714;23.732;2022-07-31T07:53:07;94334.47;;;22.24;100.00
11329;BME280;5719;42.714;23.732;2022-07-31T07:55:34;94339.13;;;22.58;100.00
11329;BME280;5719;42.714;23.732;2022-07-31T07:58:01;94338.03;;;22.88;100.00
11329;BME280;5719;42.714;23.732;2022-07-31T08:00:30;94333.72;;;23.02;100.00
11329;BME280;5719;42.714;23.732;2022-07-31T08:02:58;94342.31;;;23.10;97.61
11329;BME280;5719;42.714;23.732;2022-07-31T08:05:24;94327.34;;;23.17;96.02
11329;BME280;5719;42.714;23.732;2022-07-31T08:07:51;94329.13;;;23.31;94.55
11329;BME280;5719;42.714;23.732;2022-07-31T08:10:19;94329.09;;;23.53;93.40
11329;BME280;5719;42.714;23.732;2022-07-31T08:12:45;94335.84;;;23.62;93.33
11329;BME280;5719;42.714;23.732;2022-07-31T08:15:12;94332.25;;;23.69;90.93
11329;BME280;5719;42.714;23.732;2022-07-31T08:17:41;94334.47;;;23.66;91.87
11329;BME280;5719;42.714;23.732;2022-07-31T08:20:08;94341.59;;;23.72;91.29
11329;BME280;5719;42.714;23.732;2022-07-31T08:22:36;94341.00;;;23.70;89.68
11329;BME280;5719;42.714;23.732;2022-07-31T08:25:03;94339.72;;;23.38;91.97
11329;BME280;5719;42.714;23.732;2022-07-31T08:27:30;94337.25;;;23.36;93.44
11329;BME280;5719;42.714;23.732;2022-07-31T08:30:00;94325.25;;;23.55;91.48
11329;BME280;5719;42.714;23.732;2022-07-31T08:32:27;94334.53;;;23.79;89.82
11329;BME280;5719;42.714;23.732;2022-07-31T08:34:56;94323.84;;;23.93;90.27
11329;BME280;5719;42.714;23.732;2022-07-31T08:37:23;94330.00;;;24.41;86.96
11329;BME280;5719;42.714;23.732;2022-07-31T08:39:50;94328.59;;;24.46;85.60
11329;BME280;5719;42.714;23.732;2022-07-31T08:42:18;94326.63;;;24.74;84.50
11329;BME280;5719;42.714;23.732;2022-07-31T08:44:45;94326.94;;;25.05;82.72
11329;BME280;5719;42.714;23.732;2022-07-31T08:47:13;94330.19;;;25.01;82.40
11329;BME280;5719;42.714;23.732;2022-07-31T08:49:42;94327.31;;;24.96;83.25
11329;BME280;5719;42.714;23.732;2022-07-31T08:52:16;94319.78;;;24.86;86.28
11329;BME280;5719;42.714;23.732;2022-07-31T08:54:45;94325.72;;;25.14;84.43
11329;BME280;5719;42.714;23.732;2022-07-31T08:57:12;94326.16;;;25.31;81.91
11329;BME280;5719;42.714;23.732;2022-07-31T08:59:40;94324.31;;;25.45;79.99
11329;BME280;5719;42.714;23.732;2022-07-31T09:02:08;94321.69;;;25.64;78.74
11329;BME280;5719;42.714;23.732;2022-07-31T09:04:35;94328.78;;;25.77;78.54
11329;BME280;5719;42.714;23.732;2022-07-31T09:07:02;94326.69;;;26.05;79.39
11329;BME280;5719;42.714;23.732;2022-07-31T09:09:31;94318.19;;;25.90;79.49
11329;BME280;5719;42.714;23.732;2022-07-31T09:11:58;94321.28;;;25.61;76.33
11329;BME280;5719;42.714;23.732;2022-07-31T09:14:26;94316.56;;;25.82;74.05
11329;BME280;5719;42.714;23.732;2022-07-31T09:16:54;94305.69;;;26.10;78.12
11329;BME280;5719;42.714;23.732;2022-07-31T09:19:22;94312.81;;;26.10;76.37
11329;BME280;5719;42.714;23.732;2022-07-31T09:21:50;94308.22;;;25.66;77.11
11329;BME280;5719;42.714;23.732;2022-07-31T09:24:26;94316.19;;;25.46;76.85
11329;BME280;5719;42.714;23.732;2022-07-31T09:27:03;94314.94;;;25.16;77.48
11329;BME280;5719;42.714;23.732;2022-07-31T09:29:38;94312.50;;;25.41;77.18
11329;BME280;5719;42.714;23.732;2022-07-31T09:32:13;94306.41;;;25.27;78.19
11329;BME280;5719;42.714;23.732;2022-07-31T09:34:40;94306.78;;;25.17;78.62
11329;BME280;5719;42.714;23.732;2022-07-31T09:37:09;94299.47;;;25.13;78.38
11329;BME280;5719;42.714;23.732;2022-07-31T09:39:37;94294.16;;;25.00;81.00
11329;BME280;5719;42.714;23.732;2022-07-31T09:42:07;94296.94;;;24.59;81.57
11329;BME280;5719;42.714;23.732;2022-07-31T09:44:38;94293.25;;;24.53;83.54
11329;BME280;5719;42.714;23.732;2022-07-31T09:47:06;94289.44;;;24.69;82.84
11329;BME280;5719;42.714;23.732;2022-07-31T09:49:33;94294.72;;;24.62;83.14
11329;BME280;5719;42.714;23.732;2022-07-31T09:52:01;94300.50;;;25.05;81.51
11329;BME280;5719;42.714;23.732;2022-07-31T09:54:29;94291.72;;;25.18;79.85
11329;BME280;5719;42.714;23.732;2022-07-31T09:56:57;94294.38;;;25.11;79.03
11329;BME280;5719;42.714;23.732;2022-07-31T09:59:26;94290.09;;;25.36;77.92
11329;BME280;5719;42.714;23.732;2022-07-31T10:01:54;94289.31;;;25.43;78.43
11329;BME280;5719;42.714;23.732;2022-07-31T10:04:23;94287.25;;;25.58;77.35
11329;BME280;5719;42.714;23.732;2022-07-31T10:06:51;94289.50;;;25.67;78.05
11329;BME280;5719;42.714;23.732;2022-07-31T10:09:19;94281.97;;;25.64;77.71
11329;BME280;5719;42.714;23.732;2022-07-31T10:11:47;94289.84;;;25.91;76.17
11329;BME280;5719;42.714;23.732;2022-07-31T10:14:20;94283.88;;;26.21;73.87
11329;BME280;5719;42.714;23.732;2022-07-31T10:16:51;94281.75;;;26.37;72.05
11329;BME280;5719;42.714;23.732;2022-07-31T10:19:21;94272.31;;;26.47;73.27
11329;BME280;5719;42.714;23.732;2022-07-31T10:21:53;94271.41;;;26.60;72.24
11329;BME280;5719;42.714;23.732;2022-07-31T10:24:22;94287.63;;;26.45;71.76
11329;BME280;5719;42.714;23.732;2022-07-31T10:26:55;94282.69;;;26.49;71.18
11329;BME280;5719;42.714;23.732;2022-07-31T10:29:22;94280.19;;;26.09;73.13
11329;BME280;5719;42.714;23.732;2022-07-31T10:31:51;94285.25;;;25.53;76.41
11329;BME280;5719;42.714;23.732;2022-07-31T10:34:19;94276.06;;;25.29;78.91
11329;BME280;5719;42.714;23.732;2022-07-31T10:36:48;94274.81;;;25.65;76.56
11329;BME280;5719;42.714;23.732;2022-07-31T10:39:23;94271.72;;;25.88;76.36
11329;BME280;5719;42.714;23.732;2022-07-31T10:41:55;94270.09;;;25.93;73.13
11329;BME280;5719;42.714;23.732;2022-07-31T10:44:34;94277.63;;;25.90;75.05
11329;BME280;5719;42.714;23.732;2022-07-31T10:47:12;94282.28;;;26.01;72.12
11329;BME280;5719;42.714;23.732;2022-07-31T10:49:40;94274.88;;;26.29;70.51
11329;BME280;5719;42.714;23.732;2022-07-31T10:52:09;94265.84;;;26.37;70.47
11329;BME280;5719;42.714;23.732;2022-07-31T10:54:40;94261.88;;;26.59;70.00
11329;BME280;5719;42.714;23.732;2022-07-31T10:57:08;94261.44;;;26.62;69.19
11329;BME280;5719;42.714;23.732;2022-07-31T10:59:46;94265.28;;;26.66;69.98
11329;BME280;5719;42.714;23.732;2022-07-31T11:02:26;94260.31;;;26.76;68.56
11329;BME280;5719;42.714;23.732;2022-07-31T11:04:53;94260.63;;;26.93;65.68
11329;BME280;5719;42.714;23.732;2022-07-31T11:07:20;94256.38;;;27.16;63.73
11329;BME280;5719;42.714;23.732;2022-07-31T11:09:47;94250.31;;;27.09;64.34
11329;BME280;5719;42.714;23.732;2022-07-31T11:12:18;94249.69;;;27.07;65.19
11329;BME280;5719;42.714;23.732;2022-07-31T11:14:46;94248.19;;;27.18;65.57
11329;BME280;5719;42.714;23.732;2022-07-31T11:17:14;94247.44;;;27.11;65.40
11329;BME280;5719;42.714;23.732;2022-07-31T11:19:43;94242.66;;;27.44;64.92
11329;BME280;5719;42.714;23.732;2022-07-31T11:22:10;94242.78;;;27.74;62.53
11329;BME280;5719;42.714;23.732;2022-07-31T11:24:38;94236.00;;;27.60;59.84
11329;BME280;5719;42.714;23.732;2022-07-31T11:27:05;94240.88;;;27.81;60.35
11329;BME280;5719;42.714;23.732;2022-07-31T11:29:34;94240.75;;;28.12;57.67
11329;BME280;5719;42.714;23.732;2022-07-31T11:32:11;94229.22;;;28.18;59.64
11329;BME280;5719;42.714;23.732;2022-07-31T11:34:46;94235.31;;;28.37;56.93
11329;BME280;5719;42.714;23.732;2022-07-31T11:37:15;94227.38;;;27.64;57.80
11329;BME280;5719;42.714;23.732;2022-07-31T11:39:43;94223.25;;;27.68;60.16
11329;BME280;5719;42.714;23.732;2022-07-31T11:42:10;94222.56;;;27.91;56.90
11329;BME280;5719;42.714;23.732;2022-07-31T11:44:37;94218.88;;;27.92;54.25
11329;BME280;5719;42.714;23.732;2022-07-31T11:47:04;94220.78;;;28.03;55.02
11329;BME280;5719;42.714;23.732;2022-07-31T11:49:31;94212.97;;;28.27;52.69
11329;BME280;5719;42.714;23.732;2022-07-31T11:52:04;94203.78;;;28.41;54.49
11329;BME280;5719;42.714;23.732;2022-07-31T11:54:32;94208.78;;;28.49;53.57
11329;BME280;5719;42.714;23.732;2022-07-31T11:57:00;94201.16;;;28.22;55.19
11329;BME280;5719;42.714;23.732;2022-07-31T11:59:28;94200.09;;;28.23;56.54
11329;BME280;5719;42.714;23.732;2022-07-31T12:02:02;94203.00;;;28.52;56.38
11329;BME280;5719;42.714;23.732;2022-07-31T12:04:29;94212.25;;;28.79;54.57
11329;BME280;5719;42.714;23.732;2022-07-31T12:06:57;94210.59;;;29.31;54.09
11329;BME280;5719;42.714;23.732;2022-07-31T12:09:26;94200.25;;;29.23;51.85
11329;BME280;5719;42.714;23.732;2022-07-31T12:11:53;94201.63;;;29.26;52.35
11329;BME280;5719;42.714;23.732;2022-07-31T12:14:28;94203.09;;;29.40;51.39
11329;BME280;5719;42.714;23.732;2022-07-31T12:16:55;94198.88;;;29.20;49.71
11329;BME280;5719;42.714;23.732;2022-07-31T12:19:26;94192.66;;;29.38;52.68
11329;BME280;5719;42.714;23.732;2022-07-31T12:21:53;94181.84;;;29.68;49.95
11329;BME280;5719;42.714;23.732;2022-07-31T12:24:21;94177.22;;;29.05;51.57
11329;BME280;5719;42.714;23.732;2022-07-31T12:26:51;94188.00;;;29.10;51.02
11329;BME280;5719;42.714;23.732;2022-07-31T12:29:19;94176.47;;;28.75;51.64
11329;BME280;5719;42.714;23.732;2022-07-31T12:31:47;94177.13;;;28.59;52.26
11329;BME280;5719;42.714;23.732;2022-07-31T12:34:25;94176.97;;;28.95;53.77
11329;BME280;5719;42.714;23.732;2022-07-31T12:36:59;94170.53;;;29.38;51.08
11329;BME280;5719;42.714;23.732;2022-07-31T12:39:27;94173.19;;;29.61;49.86
11329;BME280;5719;42.714;23.732;2022-07-31T12:41:56;94178.03;;;29.52;48.58
11329;BME280;5719;42.714;23.732;2022-07-31T12:44:23;94181.81;;;29.91;47.58
11329;BME280;5719;42.714;23.732;2022-07-31T12:46:50;94177.28;;;30.32;48.69
11329;BME280;5719;42.714;23.732;2022-07-31T12:49:17;94169.38;;;30.48;46.45
11329;BME280;5719;42.714;23.732;2022-07-31T12:51:44;94173.78;;;30.43;45.44
11329;BME280;5719;42.714;23.732;2022-07-31T12:54:11;94179.50;;;30.63;45.57
11329;BME280;5719;42.714;23.732;2022-07-31T12:56:39;94179.38;;;31.20;43.69
11329;BME280;5719;42.714;23.732;2022-07-31T12:59:08;94174.59;;;31.55;42.85